Rusk, Texas
Current Conditions -  °F | °C
As of 7:35 AM on Sunday 23 Nov 2014 (Local Time) from KJSO Reporting Station
Overcast Overcast  
Wind Chill: 62°   Ceiling: 200
Heat Index: 62°   Visibility: 10mi
Dew Point: 61°   Wind: 6mph
Humidity: 97%   Direction: 200°SSW
Pressure: 29.63"   Gusts: NA
Location:  31.8°N, 95.15°W
Report Text: KJSO 231335Z AUTO 20005KT 10SM BKN002 BKN007 OVC023 16/16 A2963 RMK AO2 T01660161
Loading
Personal Weather Stations






























Interactive Weather Map New forecast layout! Learn more

10-Day Weather Forecast

Advertisements
Track Severe Weather on mobile